createdAt,value
2019-03-06T00:01:14.838Z,98170.30
2019-03-06T00:03:44.009Z,98169.72
2019-03-06T00:06:16.640Z,98168.83
2019-03-06T00:08:44.578Z,98165.83
2019-03-06T00:11:13.779Z,98166.09
2019-03-06T00:13:42.927Z,98161.01
2019-03-06T00:16:12.089Z,98166.17
2019-03-06T00:18:41.211Z,98170.12
2019-03-06T00:21:10.397Z,98170.17
2019-03-06T00:23:39.518Z,98165.93
2019-03-06T00:26:08.912Z,98164.43
2019-03-06T00:28:38.023Z,98153.53
2019-03-06T00:31:07.210Z,98155.11
2019-03-06T00:33:36.382Z,98157.30
2019-03-06T00:36:10.061Z,98161.31
2019-03-06T00:38:39.251Z,98162.41
2019-03-06T00:41:25.966Z,98165.41
2019-03-06T00:43:55.072Z,98167.93
2019-03-06T00:46:24.251Z,98166.98
2019-03-06T00:48:53.437Z,98162.02
2019-03-06T00:51:22.517Z,98164.72
2019-03-06T00:53:51.664Z,98165.50
2019-03-06T00:56:20.799Z,98169.77
2019-03-06T00:58:50.110Z,98169.77
2019-03-06T01:01:19.321Z,98172.65
2019-03-06T01:03:48.448Z,98174.44
2019-03-06T01:06:17.676Z,98170.16
2019-03-06T01:08:46.984Z,98175.86
2019-03-06T01:11:16.174Z,98171.03
2019-03-06T01:13:45.305Z,98171.50
2019-03-06T01:16:14.497Z,98158.59
2019-03-06T01:18:43.674Z,98157.31
2019-03-06T01:21:13.132Z,98159.52
2019-03-06T01:23:42.286Z,98161.48
2019-03-06T01:26:11.503Z,98159.30
2019-03-06T01:28:40.661Z,98164.03
2019-03-06T01:31:09.875Z,98166.73
2019-03-06T01:34:04.230Z,98164.52
2019-03-06T01:36:43.919Z,98163.20
2019-03-06T01:39:41.666Z,98165.45
2019-03-06T01:42:18.694Z,98163.58
2019-03-06T01:44:54.181Z,98163.75
2019-03-06T01:47:23.136Z,98163.57
2019-03-06T01:49:52.344Z,98163.03
2019-03-06T01:52:21.468Z,98162.27
2019-03-06T01:54:50.638Z,98160.86
2019-03-06T01:57:19.742Z,98153.64
2019-03-06T01:59:48.936Z,98157.97
2019-03-06T02:02:18.720Z,98163.02
2019-03-06T02:04:47.895Z,98154.41
2019-03-06T04:24:24.614Z,98058.91
2019-03-06T04:26:53.763Z,98048.33
2019-03-06T04:29:23.052Z,98051.55
2019-03-06T04:31:52.211Z,98050.98
2019-03-06T04:34:21.417Z,98049.31
2019-03-06T04:36:50.563Z,98044.99
2019-03-06T04:39:19.735Z,98045.58
2019-03-06T04:41:48.872Z,98046.33
2019-03-06T04:44:18.117Z,98046.02
2019-03-06T04:46:47.259Z,98039.82
2019-03-06T04:49:16.454Z,98036.13
2019-03-06T04:51:45.620Z,98022.59
2019-03-06T04:54:14.779Z,98015.29
2019-03-06T04:56:44.047Z,98023.88
2019-03-06T04:59:13.169Z,98026.48
2019-03-06T05:01:42.600Z,98024.36
2019-03-06T05:04:11.836Z,98018.39
2019-03-06T05:06:40.972Z,98008.22
2019-03-06T05:09:10.147Z,98000.05
2019-03-06T05:11:39.324Z,98009.50
2019-03-06T05:14:08.484Z,98011.08
2019-03-06T05:16:49.810Z,98006.88
2019-03-06T05:19:19.013Z,98013.53
2019-03-06T05:21:48.192Z,98021.25
2019-03-06T05:24:17.383Z,98013.09
2019-03-06T05:26:46.510Z,98006.88
2019-03-06T05:29:24.700Z,97994.74
2019-03-06T05:32:43.505Z,97994.34
2019-03-06T05:35:22.590Z,98004.83
2019-03-06T05:38:19.485Z,98011.63
2019-03-06T05:40:48.633Z,98004.53
2019-03-06T05:43:17.877Z,97999.68
2019-03-06T05:45:47.351Z,98000.05
2019-03-06T05:48:16.482Z,97998.88
2019-03-06T05:50:45.928Z,98006.52
2019-03-06T05:53:15.050Z,98007.25
2019-03-06T05:55:44.197Z,97997.55
2019-03-06T05:58:13.405Z,97997.08
2019-03-06T06:00:42.578Z,97992.14
2019-03-06T06:03:11.714Z,97989.14
2019-03-06T06:05:42.791Z,97989.98
2019-03-06T06:08:12.022Z,97994.11
2019-03-06T06:10:41.571Z,97987.52
2019-03-06T06:13:10.722Z,97987.66
2019-03-06T06:15:39.915Z,97985.03
2019-03-06T06:18:09.150Z,97968.55
2019-03-06T06:20:38.769Z,97970.29
2019-03-06T06:23:30.153Z,97962.14
2019-03-06T06:25:59.300Z,97966.70
2019-03-06T06:28:28.603Z,97959.95
2019-03-06T06:30:57.966Z,97953.14
2019-03-06T06:33:27.300Z,97950.40
2019-03-06T06:35:56.531Z,97947.17
2019-03-06T06:38:25.756Z,97944.09
2019-03-06T06:40:54.899Z,97953.28
2019-03-06T06:43:24.158Z,97949.78
2019-03-06T06:45:53.420Z,97938.56
2019-03-06T06:48:23.832Z,97933.34
2019-03-06T06:51:26.327Z,97922.65
2019-03-06T06:54:12.682Z,97919.89
2019-03-06T06:57:21.860Z,97909.67
2019-03-06T07:00:23.572Z,97906.56
2019-03-06T07:03:45.876Z,97907.93
2019-03-06T07:06:40.182Z,97903.92
2019-03-06T07:09:28.819Z,97890.78
2019-03-06T07:12:19.858Z,97886.23
2019-03-06T07:14:59.655Z,97894.15
2019-03-06T07:17:38.942Z,97897.78
2019-03-06T07:20:43.300Z,97893.47
2019-03-06T07:23:19.359Z,97901.77
2019-03-06T07:26:10.562Z,97893.50
2019-03-06T07:29:05.049Z,97894.69
2019-03-06T07:31:56.157Z,97899.16
2019-03-06T07:34:36.647Z,97891.11
2019-03-06T07:37:12.331Z,97891.47
2019-03-06T07:40:09.495Z,97889.55
2019-03-06T07:42:55.537Z,97897.11
2019-03-06T07:46:05.826Z,97895.31
2019-03-06T07:49:05.663Z,97899.26
2019-03-06T07:51:40.862Z,97888.33
2019-03-06T07:54:23.205Z,97885.64
2019-03-06T07:57:11.422Z,97886.34
2019-03-06T07:59:40.822Z,97882.64
2019-03-06T08:02:12.651Z,97883.83
2019-03-06T08:04:50.511Z,97878.16
2019-03-06T08:07:19.720Z,97871.02
2019-03-06T08:09:49.234Z,97872.56
2019-03-06T08:12:29.087Z,97870.50
2019-03-06T08:15:23.498Z,97868.73
2019-03-06T08:18:10.799Z,97865.84
2019-03-06T08:20:58.114Z,97857.27
2019-03-06T08:23:39.553Z,97845.66
2019-03-06T08:26:08.956Z,97844.05
2019-03-06T08:28:38.203Z,97841.88
2019-03-06T08:31:17.093Z,97836.16
2019-03-06T08:33:46.247Z,97824.73
2019-03-06T08:36:15.415Z,97836.77
2019-03-06T08:38:44.607Z,97833.48
2019-03-06T08:41:13.778Z,97827.70
2019-03-06T08:43:43.488Z,97829.03
2019-03-06T08:46:34.602Z,97823.45
2019-03-06T08:49:42.126Z,97825.27
2019-03-06T08:52:28.849Z,97821.91
2019-03-06T08:55:23.096Z,97822.33
2019-03-06T08:58:13.033Z,97808.95
2019-03-06T09:00:56.523Z,97815.50
2019-03-06T09:03:58.017Z,97810.96
2019-03-06T09:06:39.089Z,97804.95
2019-03-06T09:09:27.794Z,97813.28
2019-03-06T09:12:21.737Z,97807.63
2019-03-06T09:15:15.857Z,97802.60
2019-03-06T09:18:09.110Z,97802.60
2019-03-06T09:20:43.367Z,97797.02
2019-03-06T09:23:34.750Z,97793.69
2019-03-06T09:26:19.551Z,97788.16
2019-03-06T09:29:01.448Z,97776.57
2019-03-06T09:31:39.629Z,97774.70
2019-03-06T09:34:21.647Z,97776.48
2019-03-06T09:37:09.313Z,97778.99
2019-03-06T09:39:48.832Z,97767.11
2019-03-06T09:42:35.974Z,97768.69
2019-03-06T09:45:11.237Z,97756.68
2019-03-06T09:47:47.446Z,97758.35
2019-03-06T09:50:24.369Z,97747.98
2019-03-06T09:53:12.591Z,97735.25
2019-03-06T09:55:59.918Z,97736.02
2019-03-06T09:58:45.030Z,97730.84
2019-03-06T10:01:32.125Z,97728.12
2019-03-06T10:04:32.432Z,97723.45
2019-03-06T10:07:31.065Z,97722.36
2019-03-06T10:10:19.240Z,97718.38
2019-03-06T10:13:07.406Z,97713.63
2019-03-06T10:15:43.639Z,97714.30
2019-03-06T10:18:18.054Z,97707.66
2019-03-06T10:20:47.224Z,97697.70
2019-03-06T10:23:16.415Z,97692.30
2019-03-06T10:25:45.767Z,97699.28
2019-03-06T10:28:14.978Z,97698.01
2019-03-06T10:30:44.197Z,97699.86
2019-03-06T10:33:13.327Z,97690.32
2019-03-06T10:35:42.518Z,97684.19
2019-03-06T10:38:16.574Z,97677.94
2019-03-06T10:40:43.826Z,97677.53
2019-03-06T10:43:13.964Z,97689.59
2019-03-06T10:45:44.307Z,97686.61
2019-03-06T10:48:13.702Z,97667.44
2019-03-06T10:50:42.841Z,97667.44
2019-03-06T10:53:13.978Z,97661.34
2019-03-06T10:55:45.076Z,97667.45
2019-03-06T10:58:14.207Z,97668.95
2019-03-06T11:01:01.764Z,97666.48
2019-03-06T11:03:38.922Z,97658.52
2019-03-06T11:06:08.759Z,97656.80
2019-03-06T11:08:38.171Z,97649.28
2019-03-06T11:11:08.035Z,97635.86
2019-03-06T11:13:37.688Z,97635.86
2019-03-06T11:16:09.005Z,97630.95
2019-03-06T11:18:38.169Z,97628.72
2019-03-06T11:21:07.935Z,97614.64
2019-03-06T11:23:37.141Z,97614.64
2019-03-06T11:26:08.633Z,97608.69
2019-03-06T11:28:38.851Z,97589.58
2019-03-06T11:31:09.319Z,97589.58
2019-03-06T11:33:39.048Z,97593.10
2019-03-06T11:36:08.414Z,97581.80
2019-03-06T11:38:37.533Z,97581.80
2019-03-06T11:41:07.298Z,97578.95
2019-03-06T11:43:36.432Z,97574.61
2019-03-06T11:46:07.814Z,97573.62
2019-03-06T11:48:36.972Z,97567.27
2019-03-06T11:51:06.534Z,97554.95
2019-03-06T11:53:37.487Z,97554.95
2019-03-06T11:56:07.185Z,97535.08
2019-03-06T11:58:36.298Z,97538.87
2019-03-06T12:01:10.233Z,97529.66
2019-03-06T12:03:39.655Z,97522.81
2019-03-06T12:06:08.908Z,97524.50
2019-03-06T12:08:45.573Z,97530.61
2019-03-06T12:11:09.256Z,97516.90
2019-03-06T12:13:39.412Z,97518.21
2019-03-06T12:16:08.903Z,97518.21
2019-03-06T12:18:38.135Z,97512.88
2019-03-06T12:21:07.402Z,97504.89
2019-03-06T12:23:36.596Z,97503.05
2019-03-06T12:26:06.199Z,97482.71
2019-03-06T12:28:36.012Z,97486.88
2019-03-06T12:31:08.368Z,97479.38
2019-03-06T12:33:37.570Z,97483.21
2019-03-06T12:36:06.842Z,97479.69
2019-03-06T12:38:36.118Z,97470.88
2019-03-06T12:41:05.724Z,97461.26
2019-03-06T12:43:35.571Z,97460.91
2019-03-06T12:46:22.671Z,97446.16
2019-03-06T12:48:48.351Z,97446.16
2019-03-06T12:51:17.606Z,97441.83
2019-03-06T12:53:47.033Z,97432.99
2019-03-06T12:56:18.039Z,97426.52
2019-03-06T12:58:47.188Z,97421.13
2019-03-06T13:01:16.461Z,97414.11
2019-03-06T13:03:47.361Z,97402.08
2019-03-06T13:06:24.161Z,97409.53
2019-03-06T13:08:50.654Z,97399.91
2019-03-06T13:11:18.672Z,97397.92
2019-03-06T13:13:47.880Z,97387.60
2019-03-06T13:16:17.086Z,97392.22
2019-03-06T13:18:46.239Z,97384.54
2019-03-06T13:21:15.675Z,97370.46
2019-03-06T13:23:44.844Z,97373.09
2019-03-06T13:26:13.990Z,97364.44
2019-03-06T13:28:43.156Z,97364.02
2019-03-06T13:31:12.304Z,97357.39
2019-03-06T13:33:57.277Z,97357.95
2019-03-06T13:36:26.386Z,97349.98
2019-03-06T13:39:05.754Z,97347.34
2019-03-06T13:41:26.702Z,97337.17
2019-03-06T13:43:55.900Z,97343.58
2019-03-06T13:46:25.355Z,97344.36
2019-03-06T13:48:54.820Z,97332.52
2019-03-06T13:51:24.051Z,97333.90
2019-03-06T13:53:53.375Z,97330.21
2019-03-06T13:56:22.774Z,97320.81
2019-03-06T13:58:52.021Z,97314.52
2019-03-06T14:01:21.396Z,97307.19
2019-03-06T14:03:50.541Z,97317.27
2019-03-06T14:06:19.657Z,97314.83
2019-03-06T14:08:48.834Z,97310.41
2019-03-06T14:11:17.994Z,97304.78
2019-03-06T14:13:47.189Z,97297.81
2019-03-06T14:16:16.477Z,97296.77
2019-03-06T14:18:45.687Z,97298.20
2019-03-06T14:21:14.899Z,97286.27
2019-03-06T14:23:44.173Z,97279.03
2019-03-06T14:26:13.486Z,97282.02
2019-03-06T14:28:42.635Z,97276.59
2019-03-06T14:31:12.994Z,97282.64
2019-03-06T14:33:42.110Z,97280.41
2019-03-06T14:36:11.252Z,97268.94
2019-03-06T14:38:40.416Z,97279.37
2019-03-06T14:41:09.610Z,97273.42
2019-03-06T14:43:38.993Z,97268.73
2019-03-06T14:46:16.265Z,97261.69
2019-03-06T14:48:39.891Z,97263.22
2019-03-06T14:51:09.059Z,97262.98
2019-03-06T14:53:38.199Z,97253.45
2019-03-06T14:56:07.355Z,97253.72
2019-03-06T14:58:36.638Z,97255.80
2019-03-06T15:01:06.937Z,97250.78
2019-03-06T15:03:36.143Z,97250.73
2019-03-06T15:06:05.564Z,97248.84
2019-03-06T15:08:34.933Z,97242.50
2019-03-06T15:11:04.420Z,97236.14
2019-03-06T15:13:37.069Z,97238.84
2019-03-06T15:16:06.252Z,97240.88
2019-03-06T15:18:35.422Z,97241.92
2019-03-06T15:21:04.605Z,97229.27
2019-03-06T15:23:36.507Z,97240.70
2019-03-06T15:26:05.006Z,97228.95
2019-03-06T15:28:34.135Z,97226.01
2019-03-06T15:31:03.421Z,97229.00
2019-03-06T15:33:32.571Z,97225.72
2019-03-06T15:36:01.723Z,97220.78
2019-03-06T15:38:30.906Z,97230.05
2019-03-06T15:41:03.123Z,97221.68
2019-03-06T15:43:32.351Z,97212.70
2019-03-06T15:46:01.538Z,97211.29
2019-03-06T15:48:30.691Z,97202.35
2019-03-06T15:51:00.082Z,97188.69
2019-03-06T15:53:29.284Z,97184.00
2019-03-06T15:55:58.637Z,97155.75
2019-03-06T15:58:28.137Z,97157.69
2019-03-06T16:00:57.297Z,97158.28
2019-03-06T16:03:26.464Z,97163.67
2019-03-06T16:05:55.610Z,97154.84
2019-03-06T16:08:24.912Z,97151.52
2019-03-06T16:10:54.026Z,97142.41
2019-03-06T16:13:23.278Z,97141.08
2019-03-06T16:15:52.498Z,97141.40
2019-03-06T16:18:21.662Z,97143.34
2019-03-06T16:20:50.841Z,97142.41
2019-03-06T16:23:22.363Z,97141.63
2019-03-06T16:25:51.553Z,97126.73
2019-03-06T16:28:20.720Z,97126.36
2019-03-06T16:30:49.893Z,97132.06
2019-03-06T16:33:21.212Z,97129.72
2019-03-06T16:35:50.232Z,97123.37
2019-03-06T16:38:19.399Z,97123.66
2019-03-06T16:40:48.725Z,97128.84
2019-03-06T16:43:18.298Z,97120.09
2019-03-06T16:45:47.471Z,97121.71
2019-03-06T16:48:16.698Z,97122.08
2019-03-06T16:50:45.975Z,97124.42
2019-03-06T16:53:15.651Z,97115.23
2019-03-06T16:55:44.799Z,97109.75
2019-03-06T16:58:14.091Z,97109.42
2019-03-06T17:00:43.318Z,97111.91
2019-03-06T17:03:12.434Z,97107.59
2019-03-06T17:05:41.942Z,97106.85
2019-03-06T17:08:11.213Z,97104.97
2019-03-06T17:10:40.425Z,97116.15
2019-03-06T17:13:10.092Z,97094.12
2019-03-06T17:15:39.219Z,97094.12
2019-03-06T17:18:15.174Z,97100.78
2019-03-06T17:20:44.338Z,97098.90
2019-03-06T17:23:13.490Z,97097.37
2019-03-06T17:25:43.302Z,97093.79
2019-03-06T17:28:13.015Z,97093.14
2019-03-06T17:30:42.360Z,97093.80
2019-03-06T17:33:11.942Z,97098.90
2019-03-06T17:35:41.611Z,97100.92
2019-03-06T17:38:11.580Z,97101.28
2019-03-06T17:40:41.016Z,97103.77
2019-03-06T17:43:10.367Z,97102.48
2019-03-06T17:45:39.554Z,97104.55
2019-03-06T17:48:08.993Z,97103.13
2019-03-06T17:50:38.204Z,97108.46
2019-03-06T17:53:07.685Z,97100.28
2019-03-06T17:55:37.170Z,97099.45
2019-03-06T17:58:06.558Z,97097.47
2019-03-06T18:00:40.773Z,97099.81
2019-03-06T18:03:11.274Z,97088.27
2019-03-06T18:05:40.459Z,97091.81
2019-03-06T18:08:11.506Z,97094.58
2019-03-06T18:10:40.794Z,97082.63
2019-03-06T18:13:10.406Z,97078.52
2019-03-06T18:15:39.702Z,97084.37
2019-03-06T18:18:08.826Z,97079.17
2019-03-06T18:20:37.991Z,97078.16
2019-03-06T18:23:07.088Z,97067.81
2019-03-06T18:25:36.358Z,97058.11
2019-03-06T18:28:05.841Z,97059.13
2019-03-06T18:30:35.111Z,97056.14
2019-03-06T18:33:04.474Z,97053.79
2019-03-06T18:35:33.737Z,97055.81
2019-03-06T18:38:03.301Z,97056.14
2019-03-06T18:40:32.735Z,97050.34
2019-03-06T18:43:02.214Z,97059.86
2019-03-06T18:45:31.464Z,97047.59
2019-03-06T18:48:00.606Z,97056.92
2019-03-06T18:50:29.774Z,97047.17
2019-03-06T18:52:59.255Z,97047.17
2019-03-06T18:55:28.554Z,97042.70
2019-03-06T18:57:58.157Z,97036.41
2019-03-06T19:00:29.833Z,97026.62
2019-03-06T19:02:59.404Z,97022.84
2019-03-06T19:05:29.120Z,97024.46
2019-03-06T19:08:05.124Z,97022.16
2019-03-06T19:10:34.496Z,97018.52
2019-03-06T19:13:08.156Z,97020.87
2019-03-06T19:15:37.645Z,97002.94
2019-03-06T19:18:07.066Z,97011.95
2019-03-06T19:20:36.624Z,96994.78
2019-03-06T19:23:05.946Z,96994.78
2019-03-06T19:25:36.258Z,96996.88
2019-03-06T19:28:07.371Z,96986.91
2019-03-06T19:30:40.643Z,96987.55
2019-03-06T19:33:11.221Z,96977.03
2019-03-06T19:35:42.377Z,96968.66
2019-03-06T19:38:16.543Z,96969.30
2019-03-06T19:40:48.343Z,96972.77
2019-03-06T19:43:19.035Z,96963.95
2019-03-06T19:45:50.288Z,96962.19
2019-03-06T19:48:21.498Z,96962.89
2019-03-06T19:50:52.778Z,96962.59
2019-03-06T19:53:23.183Z,96963.94
2019-03-06T19:55:54.518Z,96958.16
2019-03-06T19:58:25.311Z,96951.30
2019-03-06T20:00:55.869Z,96937.87
2019-03-06T20:03:27.778Z,96937.87
2019-03-06T20:05:58.117Z,96926.65
2019-03-06T20:08:29.643Z,96931.91
2019-03-06T20:10:59.782Z,96931.91
2019-03-06T20:13:30.195Z,96930.89
2019-03-06T20:15:59.868Z,96927.47
2019-03-06T20:18:29.510Z,96923.15
2019-03-06T20:20:59.761Z,96918.52
2019-03-06T20:23:29.089Z,96916.62
2019-03-06T20:25:58.434Z,96920.56
2019-03-06T20:28:27.762Z,96908.56
2019-03-06T20:30:57.259Z,96902.88
2019-03-06T20:33:26.462Z,96896.20
2019-03-06T20:35:56.844Z,96899.08
2019-03-06T20:38:27.875Z,96902.38
2019-03-06T20:40:59.440Z,96898.50
2019-03-06T20:43:29.404Z,96900.34
2019-03-06T20:46:01.899Z,96901.56
2019-03-06T20:48:32.827Z,96901.86
2019-03-06T20:51:03.877Z,96890.81
2019-03-06T20:53:34.168Z,96893.53
2019-03-06T20:56:07.801Z,96893.04
2019-03-06T20:58:37.905Z,96887.91
2019-03-06T21:01:08.436Z,96884.23
2019-03-06T21:03:39.356Z,96878.04
2019-03-06T21:06:10.323Z,96885.36
2019-03-06T21:08:43.549Z,96875.52
2019-03-06T21:11:16.096Z,96880.52
2019-03-06T21:13:45.312Z,96872.32
2019-03-06T21:16:14.859Z,96868.13
2019-03-06T21:18:44.993Z,96871.08
2019-03-06T21:21:20.047Z,96869.72
2019-03-06T21:23:49.337Z,96870.80
2019-03-06T21:26:18.497Z,96864.95
2019-03-06T21:28:48.364Z,96868.91
2019-03-06T21:31:38.324Z,96857.20
2019-03-06T21:34:09.393Z,96852.08
2019-03-06T21:36:38.670Z,96840.59
2019-03-06T21:39:24.883Z,96845.16
2019-03-06T21:41:54.035Z,96852.91
2019-03-06T21:44:23.275Z,96849.03
2019-03-06T21:46:52.474Z,96843.56
2019-03-06T21:49:21.685Z,96833.56
2019-03-06T21:51:50.887Z,96840.61
2019-03-06T21:54:20.417Z,96832.89
2019-03-06T21:56:49.701Z,96826.48
2019-03-06T21:59:18.897Z,96826.04
2019-03-06T22:01:48.085Z,96827.44
2019-03-06T22:04:17.297Z,96833.28
2019-03-06T22:06:46.488Z,96839.88
2019-03-06T22:09:16.083Z,96827.46
2019-03-06T22:11:45.297Z,96843.38
2019-03-06T22:14:14.803Z,96838.34
2019-03-06T22:16:44.175Z,96838.34
2019-03-06T22:19:13.440Z,96834.11
2019-03-06T22:21:42.917Z,96832.97
2019-03-06T22:24:12.866Z,96835.57
2019-03-06T22:26:42.942Z,96831.34
2019-03-06T22:29:13.252Z,96830.84
2019-03-06T22:31:46.903Z,96824.88
2019-03-06T22:34:17.465Z,96824.11
2019-03-06T22:36:47.413Z,96821.56
2019-03-06T22:39:18.590Z,96823.03
2019-03-06T22:42:06.384Z,96811.08
2019-03-06T22:44:38.706Z,96806.83
2019-03-06T22:47:18.984Z,96806.86
2019-03-06T22:49:54.504Z,96802.00
2019-03-06T22:52:25.536Z,96781.33
2019-03-06T22:54:59.494Z,96781.33
2019-03-06T22:57:30.840Z,96800.06
2019-03-06T23:00:04.634Z,96797.49
2019-03-06T23:02:40.963Z,96787.58
2019-03-06T23:05:15.179Z,96781.99
2019-03-06T23:07:48.438Z,96782.24
2019-03-06T23:10:19.964Z,96780.78
2019-03-06T23:12:53.901Z,96777.83
2019-03-06T23:15:31.240Z,96768.14
2019-03-06T23:18:17.243Z,96773.09
2019-03-06T23:20:48.558Z,96766.49
2019-03-06T23:23:24.252Z,96765.83
2019-03-06T23:25:55.876Z,96766.34
2019-03-06T23:28:27.659Z,96769.27
2019-03-06T23:30:59.060Z,96759.36
2019-03-06T23:33:31.851Z,96759.86
2019-03-06T23:36:03.592Z,96750.81
2019-03-06T23:38:36.393Z,96746.25
2019-03-06T23:41:08.441Z,96738.33
2019-03-06T23:43:44.173Z,96728.56
2019-03-06T23:46:15.505Z,96730.12
2019-03-06T23:48:48.706Z,96727.20
2019-03-06T23:51:25.677Z,96721.93
2019-03-06T23:53:57.869Z,96722.66
2019-03-06T23:56:31.515Z,96717.20
2019-03-06T23:59:07.227Z,96717.39
